createdAt,value
2016-10-30T00:03:00.423Z,0
2016-10-30T00:08:00.063Z,0
2016-10-30T00:13:00.315Z,0
2016-10-30T00:18:00.268Z,0
2016-10-30T00:22:59.922Z,0
2016-10-30T00:28:00.176Z,0
2016-10-30T00:32:59.809Z,0
2016-10-30T00:37:59.791Z,0
2016-10-30T00:42:59.707Z,0
2016-10-30T00:47:59.965Z,0
2016-10-30T00:52:59.613Z,0
2016-10-30T00:57:59.859Z,0
2016-10-30T01:02:59.499Z,0
2016-10-30T01:07:59.754Z,0
2016-10-30T01:12:59.091Z,0
2016-10-30T01:17:59.387Z,0
2016-10-30T01:22:59.290Z,0
2016-10-30T01:27:59.546Z,0
2016-10-30T01:32:59.200Z,0
2016-10-30T01:37:59.134Z,0
2016-10-30T01:42:58.820Z,0
2016-10-30T01:47:59.334Z,0
2016-10-30T01:52:58.674Z,0
2016-10-30T01:57:58.926Z,0
2016-10-30T02:02:59.184Z,0
2016-10-30T02:07:59.122Z,0
2016-10-30T02:12:59.070Z,0
2016-10-30T02:17:58.100Z,0
2016-10-30T02:22:58.958Z,0
2016-10-30T02:27:58.920Z,0
2016-10-30T02:32:58.553Z,0
2016-10-30T02:37:58.804Z,0
2016-10-30T02:42:58.455Z,0
2016-10-30T02:47:58.697Z,0
2016-10-30T02:52:58.632Z,0
2016-10-30T02:57:58.317Z,0
2016-10-30T03:02:58.535Z,0
2016-10-30T03:07:58.175Z,0
2016-10-30T03:12:58.125Z,0
2016-10-30T03:17:57.831Z,0
2016-10-30T03:22:57.703Z,0
2016-10-30T03:27:58.257Z,0
2016-10-30T03:32:57.903Z,0
2016-10-30T03:37:57.847Z,0
2016-10-30T03:42:57.831Z,0
2016-10-30T03:47:58.053Z,0
2016-10-30T03:52:57.681Z,0
2016-10-30T03:57:57.941Z,0
2016-10-30T04:02:57.879Z,0
2016-10-30T04:07:57.520Z,0
2016-10-30T04:12:57.768Z,0
2016-10-30T04:17:57.716Z,0
2016-10-30T04:22:57.048Z,0
2016-10-30T04:27:57.302Z,0
2016-10-30T04:32:57.547Z,0
2016-10-30T04:37:56.882Z,0
2016-10-30T04:42:57.133Z,0
2016-10-30T04:47:57.080Z,0
2016-10-30T04:52:56.734Z,0
2016-10-30T04:57:57.278Z,0
2016-10-30T05:02:57.216Z,0
2016-10-30T05:07:56.893Z,0
2016-10-30T05:12:57.111Z,0
2016-10-30T05:17:56.749Z,0
2016-10-30T05:22:56.705Z,0
2016-10-30T05:27:56.639Z,0
2016-10-30T05:32:56.576Z,0
2016-10-30T05:37:56.825Z,0
2016-10-30T05:42:56.767Z,0
2016-10-30T05:47:56.407Z,0
2016-10-30T05:52:56.053Z,0
2016-10-30T05:57:56.599Z,0
2016-10-30T06:02:56.245Z,0
2016-10-30T06:07:56.517Z,0
2016-10-30T06:12:56.139Z,0
2016-10-30T06:17:56.079Z,0
2016-10-30T06:22:55.716Z,0
2016-10-30T06:27:56.277Z,0
2016-10-30T06:32:56.222Z,0
2016-10-30T06:37:56.165Z,0
2016-10-30T06:42:55.807Z,0
2016-10-30T06:47:56.087Z,0
2016-10-30T06:52:55.687Z,0
2016-10-30T06:57:55.336Z,0
2016-10-30T07:02:55.584Z,0
2016-10-30T07:07:55.222Z,0
2016-10-30T07:12:55.771Z,0
2016-10-30T07:17:55.710Z,0
2016-10-30T07:22:55.356Z,0
2016-10-30T07:27:55.601Z,0
2016-10-30T07:32:55.550Z,0
2016-10-30T07:37:54.911Z,0
2016-10-30T07:42:55.497Z,0
2016-10-30T07:47:55.127Z,4
2016-10-30T07:52:54.716Z,0
2016-10-30T07:57:54.958Z,0
2016-10-30T08:02:54.606Z,0
2016-10-30T08:07:55.158Z,8
2016-10-30T08:12:55.112Z,72
2016-10-30T08:17:54.752Z,60
2016-10-30T08:22:55.002Z,48
2016-10-30T08:27:54.669Z,60
2016-10-30T08:32:54.576Z,28
2016-10-30T08:37:54.539Z,20
2016-10-30T08:42:53.877Z,16
2016-10-30T08:47:54.123Z,28
2016-10-30T08:52:54.083Z,24
2016-10-30T08:57:54.325Z,32
2016-10-30T09:02:54.277Z,32
2016-10-30T09:07:54.221Z,32
2016-10-30T09:12:54.487Z,32
2016-10-30T09:17:54.121Z,32
2016-10-30T09:22:53.769Z,36
2016-10-30T09:27:54.025Z,36
2016-10-30T09:32:54.281Z,36
2016-10-30T09:37:54.231Z,44
2016-10-30T09:42:54.173Z,100
2016-10-30T09:47:53.825Z,68
2016-10-30T09:52:54.083Z,40
2016-10-30T09:57:54.045Z,32
2016-10-30T10:02:53.976Z,24
2016-10-30T10:07:53.944Z,24
2016-10-30T10:12:53.880Z,28
2016-10-30T10:17:53.520Z,24
2016-10-30T10:22:53.460Z,28
2016-10-30T10:27:53.721Z,28
2016-10-30T10:32:53.678Z,28
2016-10-30T10:37:53.623Z,28
2016-10-30T10:42:53.575Z,32
2016-10-30T10:47:52.928Z,44
2016-10-30T10:52:53.198Z,40
2016-10-30T10:57:53.121Z,48
2016-10-30T11:02:53.377Z,40
2016-10-30T11:07:53.335Z,64
2016-10-30T11:12:52.666Z,76
2016-10-30T11:17:52.927Z,80
2016-10-30T11:22:53.179Z,60
2016-10-30T11:27:52.810Z,48
2016-10-30T11:32:53.082Z,48
2016-10-30T11:37:53.022Z,44
2016-10-30T11:42:52.667Z,48
2016-10-30T11:47:52.923Z,56
2016-10-30T11:52:52.566Z,60
2016-10-30T11:57:52.516Z,64
2016-10-30T12:02:52.470Z,68
2016-10-30T12:07:52.440Z,80
2016-10-30T12:12:52.690Z,84
2016-10-30T12:17:52.635Z,96
2016-10-30T12:22:51.976Z,92
2016-10-30T12:27:51.922Z,84
2016-10-30T12:32:52.192Z,92
2016-10-30T12:37:52.446Z,120
2016-10-30T12:42:52.086Z,104
2016-10-30T12:47:52.340Z,124
2016-10-30T12:52:51.991Z,148
2016-10-30T12:57:51.944Z,188
2016-10-30T13:02:52.202Z,168
2016-10-30T13:07:51.542Z,180
2016-10-30T13:12:51.799Z,140
2016-10-30T13:17:51.763Z,164
2016-10-30T13:22:51.724Z,284
2016-10-30T13:27:51.958Z,272
2016-10-30T13:32:51.603Z,332
2016-10-30T13:37:51.856Z,376
2016-10-30T13:42:51.213Z,528
2016-10-30T13:47:51.153Z,272
2016-10-30T13:52:51.727Z,244
2016-10-30T13:57:51.667Z,128
2016-10-30T14:02:51.317Z,104
2016-10-30T14:07:51.266Z,48
2016-10-30T14:12:51.217Z,36
2016-10-30T14:17:51.173Z,32
2016-10-30T14:22:50.829Z,16
2016-10-30T14:27:51.372Z,16
2016-10-30T14:32:52.311Z,12
2016-10-30T14:37:50.991Z,16
2016-10-30T14:42:51.233Z,12
2016-10-30T14:47:50.873Z,12
2016-10-30T14:52:51.132Z,8
2016-10-30T14:57:50.470Z,8
2016-10-30T15:02:50.434Z,8
2016-10-30T15:07:50.690Z,12
2016-10-30T15:12:50.666Z,12
2016-10-30T15:17:50.893Z,8
2016-10-30T15:22:50.857Z,12
2016-10-30T15:27:50.796Z,12
2016-10-30T15:32:50.447Z,8
2016-10-30T15:37:50.709Z,8
2016-10-30T15:42:50.645Z,8
2016-10-30T15:47:50.604Z,4
2016-10-30T15:52:49.953Z,4
2016-10-30T15:57:50.218Z,8
2016-10-30T16:02:49.847Z,4
2016-10-30T16:07:49.798Z,4
2016-10-30T16:12:50.361Z,4
2016-10-30T16:17:50.319Z,4
2016-10-30T16:22:50.264Z,4
2016-10-30T16:27:49.927Z,4
2016-10-30T16:32:50.178Z,4
2016-10-30T16:37:49.816Z,4
2016-10-30T16:42:49.760Z,4
2016-10-30T16:47:50.012Z,4
2016-10-30T16:52:49.658Z,4
2016-10-30T16:57:49.933Z,4
2016-10-30T17:02:49.299Z,4
2016-10-30T17:07:49.522Z,4
2016-10-30T17:12:49.468Z,4
2016-10-30T17:17:49.718Z,4
2016-10-30T17:22:49.678Z,4
2016-10-30T17:27:49.638Z,4
2016-10-30T17:32:49.581Z,4
2016-10-30T17:37:49.524Z,4
2016-10-30T17:42:49.171Z,4
2016-10-30T17:47:49.126Z,4
2016-10-30T17:52:49.065Z,4
2016-10-30T17:57:49.328Z,4
2016-10-30T18:02:48.662Z,4
2016-10-30T18:07:48.931Z,4
2016-10-30T18:12:48.869Z,4
2016-10-30T18:17:48.812Z,4
2016-10-30T18:22:48.758Z,4
2016-10-30T18:27:48.714Z,4
2016-10-30T18:32:48.352Z,4
2016-10-30T18:37:47.994Z,4
2016-10-30T18:42:48.249Z,4
2016-10-30T18:47:48.811Z,0
2016-10-30T18:52:48.474Z,0
2016-10-30T18:57:48.441Z,0
2016-10-30T19:02:48.659Z,0
2016-10-30T19:07:48.307Z,0
2016-10-30T19:12:48.264Z,0
2016-10-30T19:17:48.524Z,4
2016-10-30T19:22:48.517Z,0
2016-10-30T19:27:48.133Z,4
2016-10-30T19:32:48.406Z,4
2016-10-30T19:37:48.358Z,0
2016-10-30T19:42:48.307Z,0
2016-10-30T19:47:47.947Z,0
2016-10-30T19:52:47.900Z,0
2016-10-30T19:57:47.849Z,0
2016-10-30T20:02:47.815Z,0
2016-10-30T20:07:47.768Z,0
2016-10-30T20:12:48.036Z,0
2016-10-30T20:17:47.987Z,0
2016-10-30T20:22:47.651Z,0
2016-10-30T20:27:47.594Z,0
2016-10-30T20:32:47.563Z,0
2016-10-30T20:37:47.817Z,0
2016-10-30T20:42:47.773Z,0
2016-10-30T20:47:47.751Z,0
2016-10-30T20:52:47.701Z,0
2016-10-30T20:57:47.657Z,0
2016-10-30T21:02:47.295Z,4
2016-10-30T21:07:47.252Z,0
2016-10-30T21:12:47.528Z,8
2016-10-30T21:17:46.869Z,8
2016-10-30T21:22:47.228Z,8
2016-10-30T21:27:47.389Z,8
2016-10-30T21:32:47.382Z,8
2016-10-30T21:37:47.302Z,8
2016-10-30T21:42:47.262Z,8
2016-10-30T21:47:46.916Z,4
2016-10-30T21:52:47.187Z,8
2016-10-30T21:57:46.831Z,8
2016-10-30T22:02:46.797Z,8
2016-10-30T22:07:46.750Z,8
2016-10-30T22:12:46.701Z,8
2016-10-30T22:17:46.957Z,8
2016-10-30T22:22:46.914Z,8
2016-10-30T22:27:46.864Z,4
2016-10-30T22:32:46.517Z,4
2016-10-30T22:37:46.190Z,4
2016-10-30T22:42:46.411Z,4
2016-10-30T22:47:46.686Z,0
2016-10-30T22:52:46.634Z,0
2016-10-30T22:57:46.574Z,0
2016-10-30T23:02:46.529Z,0
2016-10-30T23:07:46.484Z,0
2016-10-30T23:12:45.824Z,0
2016-10-30T23:17:46.380Z,0
2016-10-30T23:22:46.327Z,0
2016-10-30T23:27:45.979Z,0
2016-10-30T23:32:45.933Z,0
2016-10-30T23:37:46.233Z,0
2016-10-30T23:42:45.865Z,0
2016-10-30T23:47:46.094Z,0
2016-10-30T23:52:45.728Z,0
2016-10-30T23:57:45.988Z,0
